sensor_id;sensor_type;location;lat;lon;timestamp;temperature;humidity
68609;SHT31;55581;46.718;7.690;2023-02-21T00:01:41;5.54;75.25
68609;SHT31;55581;46.718;7.690;2023-02-21T00:04:25;5.63;75.08
68609;SHT31;55581;46.718;7.690;2023-02-21T00:07:09;5.81;75.01
68609;SHT31;55581;46.718;7.690;2023-02-21T00:09:53;5.81;74.86
68609;SHT31;55581;46.718;7.690;2023-02-21T00:12:37;5.88;75.01
68609;SHT31;55581;46.718;7.690;2023-02-21T00:15:21;6.02;73.59
68609;SHT31;55581;46.718;7.690;2023-02-21T00:18:05;5.87;78.83
68609;SHT31;55581;46.718;7.690;2023-02-21T00:20:49;5.85;78.54
68609;SHT31;55581;46.718;7.690;2023-02-21T00:23:36;5.73;77.43
68609;SHT31;55581;46.718;7.690;2023-02-21T00:26:21;5.60;77.05
68609;SHT31;55581;46.718;7.690;2023-02-21T00:29:05;5.54;76.97
68609;SHT31;55581;46.718;7.690;2023-02-21T00:31:50;5.48;76.73
68609;SHT31;55581;46.718;7.690;2023-02-21T00:34:34;5.46;76.32
68609;SHT31;55581;46.718;7.690;2023-02-21T00:37:18;5.50;76.19
68609;SHT31;55581;46.718;7.690;2023-02-21T00:40:03;5.39;76.18
68609;SHT31;55581;46.718;7.690;2023-02-21T00:42:48;5.30;76.45
68609;SHT31;55581;46.718;7.690;2023-02-21T00:45:32;5.18;76.94
68609;SHT31;55581;46.718;7.690;2023-02-21T00:48:20;4.96;77.09
68609;SHT31;55581;46.718;7.690;2023-02-21T00:51:07;4.93;79.91
68609;SHT31;55581;46.718;7.690;2023-02-21T00:53:50;4.96;77.38
68609;SHT31;55581;46.718;7.690;2023-02-21T00:56:34;4.93;77.75
68609;SHT31;55581;46.718;7.690;2023-02-21T00:59:21;4.98;77.92
68609;SHT31;55581;46.718;7.690;2023-02-21T01:02:05;4.99;78.35
68609;SHT31;55581;46.718;7.690;2023-02-21T01:04:49;4.96;77.96
68609;SHT31;55581;46.718;7.690;2023-02-21T01:07:35;4.98;77.44
68609;SHT31;55581;46.718;7.690;2023-02-21T01:10:19;4.93;79.98
68609;SHT31;55581;46.718;7.690;2023-02-21T01:13:03;4.95;79.00
68609;SHT31;55581;46.718;7.690;2023-02-21T01:15:47;5.02;78.23
68609;SHT31;55581;46.718;7.690;2023-02-21T01:18:31;5.04;76.86
68609;SHT31;55581;46.718;7.690;2023-02-21T01:21:17;4.98;76.92
68609;SHT31;55581;46.718;7.690;2023-02-21T01:24:03;4.95;76.38
68609;SHT31;55581;46.718;7.690;2023-02-21T01:26:47;4.92;76.40
68609;SHT31;55581;46.718;7.690;2023-02-21T01:29:31;4.91;76.65
68609;SHT31;55581;46.718;7.690;2023-02-21T01:32:15;4.77;78.72
68609;SHT31;55581;46.718;7.690;2023-02-21T01:34:59;4.68;78.18
68609;SHT31;55581;46.718;7.690;2023-02-21T01:37:45;4.61;79.91
68609;SHT31;55581;46.718;7.690;2023-02-21T01:40:29;4.56;84.57
68609;SHT31;55581;46.718;7.690;2023-02-21T01:43:18;4.54;85.29
68609;SHT31;55581;46.718;7.690;2023-02-21T01:46:03;4.47;84.98
68609;SHT31;55581;46.718;7.690;2023-02-21T01:48:48;4.42;85.47
68609;SHT31;55581;46.718;7.690;2023-02-21T01:51:39;4.30;84.57
68609;SHT31;55581;46.718;7.690;2023-02-21T01:54:27;4.22;82.14
68609;SHT31;55581;46.718;7.690;2023-02-21T01:57:13;4.15;85.26
68609;SHT31;55581;46.718;7.690;2023-02-21T01:59:59;4.15;86.39
68609;SHT31;55581;46.718;7.690;2023-02-21T02:02:55;4.17;83.45
68609;SHT31;55581;46.718;7.690;2023-02-21T02:05:42;4.12;81.59
68609;SHT31;55581;46.718;7.690;2023-02-21T02:08:29;4.10;81.89
68609;SHT31;55581;46.718;7.690;2023-02-21T02:22:58;3.81;81.98
68609;SHT31;55581;46.718;7.690;2023-02-21T02:34:20;3.95;81.08
68609;SHT31;55581;46.718;7.690;2023-02-21T02:37:00;4.02;81.43
68609;SHT31;55581;46.718;7.690;2023-02-21T02:42:37;4.23;81.92
68609;SHT31;55581;46.718;7.690;2023-02-21T02:50:54;4.44;80.97
68609;SHT31;55581;46.718;7.690;2023-02-21T02:53:25;4.46;80.61
68609;SHT31;55581;46.718;7.690;2023-02-21T02:55:59;4.47;80.02
68609;SHT31;55581;46.718;7.690;2023-02-21T02:58:28;4.49;81.38
68609;SHT31;55581;46.718;7.690;2023-02-21T03:01:18;4.40;81.04
68609;SHT31;55581;46.718;7.690;2023-02-21T03:03:57;4.39;81.39
68609;SHT31;55581;46.718;7.690;2023-02-21T03:09:17;4.33;81.51
68609;SHT31;55581;46.718;7.690;2023-02-21T03:12:04;4.26;81.31
68609;SHT31;55581;46.718;7.690;2023-02-21T03:14:37;4.23;81.42
68609;SHT31;55581;46.718;7.690;2023-02-21T03:17:11;4.10;81.28
68609;SHT31;55581;46.718;7.690;2023-02-21T03:19:39;4.12;82.02
68609;SHT31;55581;46.718;7.690;2023-02-21T03:22:33;4.08;82.97
68609;SHT31;55581;46.718;7.690;2023-02-21T03:25:00;4.08;82.87
68609;SHT31;55581;46.718;7.690;2023-02-21T03:27:26;4.08;82.81
68609;SHT31;55581;46.718;7.690;2023-02-21T03:29:57;4.08;82.92
68609;SHT31;55581;46.718;7.690;2023-02-21T03:32:27;4.05;84.12
68609;SHT31;55581;46.718;7.690;2023-02-21T03:34:54;4.02;83.97
68609;SHT31;55581;46.718;7.690;2023-02-21T03:37:34;4.01;83.94
68609;SHT31;55581;46.718;7.690;2023-02-21T03:40:04;3.98;84.67
68609;SHT31;55581;46.718;7.690;2023-02-21T03:42:30;4.01;84.73
68609;SHT31;55581;46.718;7.690;2023-02-21T03:44:57;3.98;85.31
68609;SHT31;55581;46.718;7.690;2023-02-21T03:50:20;3.95;84.10
68609;SHT31;55581;46.718;7.690;2023-02-21T03:52:46;4.01;83.78
68609;SHT31;55581;46.718;7.690;2023-02-21T03:55:11;3.99;84.04
68609;SHT31;55581;46.718;7.690;2023-02-21T03:57:37;3.98;83.41
68609;SHT31;55581;46.718;7.690;2023-02-21T04:00:05;3.94;83.38
68609;SHT31;55581;46.718;7.690;2023-02-21T04:02:30;3.95;83.54
68609;SHT31;55581;46.718;7.690;2023-02-21T04:04:56;4.02;84.05
68609;SHT31;55581;46.718;7.690;2023-02-21T04:07:21;4.28;84.69
68609;SHT31;55581;46.718;7.690;2023-02-21T04:09:47;4.54;85.56
68609;SHT31;55581;46.718;7.690;2023-02-21T04:12:13;4.68;85.85
68609;SHT31;55581;46.718;7.690;2023-02-21T04:14:39;4.80;85.18
68609;SHT31;55581;46.718;7.690;2023-02-21T04:17:05;4.74;84.92
68609;SHT31;55581;46.718;7.690;2023-02-21T04:19:30;4.71;85.24
68609;SHT31;55581;46.718;7.690;2023-02-21T04:21:56;4.64;85.59
68609;SHT31;55581;46.718;7.690;2023-02-21T04:24:21;4.52;85.15
68609;SHT31;55581;46.718;7.690;2023-02-21T04:26:47;4.49;85.98
68609;SHT31;55581;46.718;7.690;2023-02-21T04:29:12;4.42;86.05
68609;SHT31;55581;46.718;7.690;2023-02-21T04:31:38;4.44;86.14
68609;SHT31;55581;46.718;7.690;2023-02-21T04:34:03;4.40;85.82
68609;SHT31;55581;46.718;7.690;2023-02-21T04:36:29;4.34;85.66
68609;SHT31;55581;46.718;7.690;2023-02-21T04:38:55;4.29;86.11
68609;SHT31;55581;46.718;7.690;2023-02-21T04:41:21;4.23;85.41
68609;SHT31;55581;46.718;7.690;2023-02-21T04:43:47;4.25;85.51
68609;SHT31;55581;46.718;7.690;2023-02-21T04:46:14;4.20;86.40
68609;SHT31;55581;46.718;7.690;2023-02-21T04:48:44;4.22;86.11
68609;SHT31;55581;46.718;7.690;2023-02-21T04:51:11;4.13;87.56
68609;SHT31;55581;46.718;7.690;2023-02-21T04:53:37;4.10;87.78
68609;SHT31;55581;46.718;7.690;2023-02-21T04:56:03;4.03;87.36
68609;SHT31;55581;46.718;7.690;2023-02-21T04:58:28;4.02;87.48
68609;SHT31;55581;46.718;7.690;2023-02-21T05:00:54;3.97;87.31
68609;SHT31;55581;46.718;7.690;2023-02-21T05:03:19;3.91;87.64
68609;SHT31;55581;46.718;7.690;2023-02-21T05:05:46;3.87;88.43
68609;SHT31;55581;46.718;7.690;2023-02-21T05:08:13;3.84;88.71
68609;SHT31;55581;46.718;7.690;2023-02-21T05:10:39;3.81;88.59
68609;SHT31;55581;46.718;7.690;2023-02-21T05:13:04;3.78;88.84
68609;SHT31;55581;46.718;7.690;2023-02-21T05:15:29;3.79;88.64
68609;SHT31;55581;46.718;7.690;2023-02-21T05:17:55;3.85;87.49
68609;SHT31;55581;46.718;7.690;2023-02-21T05:20:21;3.88;86.66
68609;SHT31;55581;46.718;7.690;2023-02-21T05:22:49;3.92;85.78
68609;SHT31;55581;46.718;7.690;2023-02-21T05:25:16;3.98;84.96
68609;SHT31;55581;46.718;7.690;2023-02-21T05:27:41;4.05;84.22
68609;SHT31;55581;46.718;7.690;2023-02-21T05:30:12;4.06;83.83
68609;SHT31;55581;46.718;7.690;2023-02-21T05:32:39;4.05;83.66
68609;SHT31;55581;46.718;7.690;2023-02-21T05:35:05;3.99;85.25
68609;SHT31;55581;46.718;7.690;2023-02-21T05:37:31;4.06;86.74
68609;SHT31;55581;46.718;7.690;2023-02-21T05:39:56;3.98;86.36
68609;SHT31;55581;46.718;7.690;2023-02-21T05:42:22;3.94;85.92
68609;SHT31;55581;46.718;7.690;2023-02-21T05:44:47;3.95;85.98
68609;SHT31;55581;46.718;7.690;2023-02-21T05:47:13;3.92;85.19
68609;SHT31;55581;46.718;7.690;2023-02-21T05:49:39;3.87;84.47
68609;SHT31;55581;46.718;7.690;2023-02-21T05:52:05;3.92;83.72
68609;SHT31;55581;46.718;7.690;2023-02-21T05:54:31;3.95;84.01
68609;SHT31;55581;46.718;7.690;2023-02-21T05:56:56;3.92;84.32
68609;SHT31;55581;46.718;7.690;2023-02-21T05:59:22;3.94;84.13
68609;SHT31;55581;46.718;7.690;2023-02-21T06:01:50;3.98;83.22
68609;SHT31;55581;46.718;7.690;2023-02-21T06:04:16;3.99;83.38
68609;SHT31;55581;46.718;7.690;2023-02-21T06:06:42;4.01;83.35
68609;SHT31;55581;46.718;7.690;2023-02-21T06:09:08;3.99;82.83
68609;SHT31;55581;46.718;7.690;2023-02-21T06:11:35;3.95;83.09
68609;SHT31;55581;46.718;7.690;2023-02-21T06:14:04;3.91;83.37
68609;SHT31;55581;46.718;7.690;2023-02-21T06:16:35;3.91;83.91
68609;SHT31;55581;46.718;7.690;2023-02-21T06:19:03;3.89;83.87
68609;SHT31;55581;46.718;7.690;2023-02-21T06:21:29;3.84;84.05
68609;SHT31;55581;46.718;7.690;2023-02-21T06:23:55;3.81;85.03
68609;SHT31;55581;46.718;7.690;2023-02-21T06:26:21;3.81;84.72
68609;SHT31;55581;46.718;7.690;2023-02-21T06:28:48;3.81;85.01
68609;SHT31;55581;46.718;7.690;2023-02-21T06:31:15;3.79;84.88
68609;SHT31;55581;46.718;7.690;2023-02-21T06:33:44;3.70;85.06
68609;SHT31;55581;46.718;7.690;2023-02-21T06:36:14;3.68;85.62
68609;SHT31;55581;46.718;7.690;2023-02-21T06:38:43;3.68;85.57
68609;SHT31;55581;46.718;7.690;2023-02-21T06:41:09;3.64;85.60
68609;SHT31;55581;46.718;7.690;2023-02-21T06:43:35;3.61;85.50
68609;SHT31;55581;46.718;7.690;2023-02-21T06:46:04;3.67;85.24
68609;SHT31;55581;46.718;7.690;2023-02-21T06:48:30;3.66;85.18
68609;SHT31;55581;46.718;7.690;2023-02-21T06:50:56;3.67;85.41
68609;SHT31;55581;46.718;7.690;2023-02-21T06:53:24;3.63;85.63
68609;SHT31;55581;46.718;7.690;2023-02-21T06:55:50;3.61;85.75
68609;SHT31;55581;46.718;7.690;2023-02-21T06:58:18;3.66;85.44
68609;SHT31;55581;46.718;7.690;2023-02-21T07:00:43;3.66;85.23
68609;SHT31;55581;46.718;7.690;2023-02-21T07:03:09;3.71;84.59
68609;SHT31;55581;46.718;7.690;2023-02-21T07:05:37;3.79;84.30
68609;SHT31;55581;46.718;7.690;2023-02-21T07:08:06;3.82;84.35
68609;SHT31;55581;46.718;7.690;2023-02-21T07:10:32;3.84;84.53
68609;SHT31;55581;46.718;7.690;2023-02-21T07:12:57;3.87;84.42
68609;SHT31;55581;46.718;7.690;2023-02-21T07:15:22;3.88;84.57
68609;SHT31;55581;46.718;7.690;2023-02-21T07:17:48;3.89;84.81
68609;SHT31;55581;46.718;7.690;2023-02-21T07:20:13;3.91;83.97
68609;SHT31;55581;46.718;7.690;2023-02-21T07:22:40;3.91;83.62
68609;SHT31;55581;46.718;7.690;2023-02-21T07:25:05;3.82;84.23
68609;SHT31;55581;46.718;7.690;2023-02-21T07:27:31;3.85;86.39
68609;SHT31;55581;46.718;7.690;2023-02-21T07:29:57;3.94;87.70
68609;SHT31;55581;46.718;7.690;2023-02-21T07:32:23;4.01;86.89
68609;SHT31;55581;46.718;7.690;2023-02-21T07:34:49;4.15;87.33
68609;SHT31;55581;46.718;7.690;2023-02-21T07:37:15;4.29;88.29
68609;SHT31;55581;46.718;7.690;2023-02-21T07:39:41;4.36;88.03
68609;SHT31;55581;46.718;7.690;2023-02-21T07:42:09;4.42;86.22
68609;SHT31;55581;46.718;7.690;2023-02-21T07:44:35;4.50;86.55
68609;SHT31;55581;46.718;7.690;2023-02-21T07:47:02;4.57;85.18
68609;SHT31;55581;46.718;7.690;2023-02-21T07:49:30;4.63;84.10
68609;SHT31;55581;46.718;7.690;2023-02-21T07:51:55;4.65;84.01
68609;SHT31;55581;46.718;7.690;2023-02-21T07:54:21;4.75;83.77
68609;SHT31;55581;46.718;7.690;2023-02-21T07:56:48;4.85;83.46
68609;SHT31;55581;46.718;7.690;2023-02-21T07:59:14;4.92;83.55
68609;SHT31;55581;46.718;7.690;2023-02-21T08:01:40;5.04;84.82
68609;SHT31;55581;46.718;7.690;2023-02-21T08:04:06;5.05;85.58
68609;SHT31;55581;46.718;7.690;2023-02-21T08:06:35;5.13;84.60
68609;SHT31;55581;46.718;7.690;2023-02-21T08:09:00;5.18;83.96
68609;SHT31;55581;46.718;7.690;2023-02-21T08:11:26;5.27;83.77
68609;SHT31;55581;46.718;7.690;2023-02-21T08:13:52;5.36;83.68
68609;SHT31;55581;46.718;7.690;2023-02-21T08:16:17;5.48;83.61
68609;SHT31;55581;46.718;7.690;2023-02-21T08:18:46;5.57;83.65
68609;SHT31;55581;46.718;7.690;2023-02-21T08:21:12;5.71;83.33
68609;SHT31;55581;46.718;7.690;2023-02-21T08:23:37;5.79;83.04
68609;SHT31;55581;46.718;7.690;2023-02-21T08:26:04;5.91;82.93
68609;SHT31;55581;46.718;7.690;2023-02-21T08:28:29;5.99;83.05
68609;SHT31;55581;46.718;7.690;2023-02-21T08:30:55;6.09;82.67
68609;SHT31;55581;46.718;7.690;2023-02-21T08:33:20;6.19;81.66
68609;SHT31;55581;46.718;7.690;2023-02-21T08:35:46;6.26;82.02
68609;SHT31;55581;46.718;7.690;2023-02-21T08:38:13;6.23;80.95
68609;SHT31;55581;46.718;7.690;2023-02-21T08:40:38;6.34;79.88
68609;SHT31;55581;46.718;7.690;2023-02-21T08:43:04;6.44;79.23
68609;SHT31;55581;46.718;7.690;2023-02-21T08:45:30;6.67;78.17
68609;SHT31;55581;46.718;7.690;2023-02-21T08:47:57;6.83;77.32
68609;SHT31;55581;46.718;7.690;2023-02-21T08:50:26;6.91;73.79
68609;SHT31;55581;46.718;7.690;2023-02-21T08:52:52;6.92;74.02
68609;SHT31;55581;46.718;7.690;2023-02-21T08:55:18;7.05;74.39
68609;SHT31;55581;46.718;7.690;2023-02-21T08:57:49;7.24;73.11
68609;SHT31;55581;46.718;7.690;2023-02-21T09:00:16;7.33;72.60
68609;SHT31;55581;46.718;7.690;2023-02-21T09:02:43;7.44;72.73
68609;SHT31;55581;46.718;7.690;2023-02-21T09:05:14;7.44;72.61
68609;SHT31;55581;46.718;7.690;2023-02-21T09:07:41;7.46;74.69
68609;SHT31;55581;46.718;7.690;2023-02-21T09:10:08;7.51;74.70
68609;SHT31;55581;46.718;7.690;2023-02-21T09:12:35;7.59;73.77
68609;SHT31;55581;46.718;7.690;2023-02-21T09:15:01;7.70;72.78
68609;SHT31;55581;46.718;7.690;2023-02-21T09:17:27;7.50;73.66
68609;SHT31;55581;46.718;7.690;2023-02-21T09:20:04;7.63;73.24
68609;SHT31;55581;46.718;7.690;2023-02-21T09:22:34;7.51;73.99
68609;SHT31;55581;46.718;7.690;2023-02-21T09:25:01;7.61;75.23
68609;SHT31;55581;46.718;7.690;2023-02-21T09:27:27;7.78;74.48
68609;SHT31;55581;46.718;7.690;2023-02-21T09:30:13;7.85;73.49
68609;SHT31;55581;46.718;7.690;2023-02-21T09:32:39;7.81;73.79
68609;SHT31;55581;46.718;7.690;2023-02-21T09:35:07;7.79;74.46
68609;SHT31;55581;46.718;7.690;2023-02-21T09:37:36;7.88;73.39
68609;SHT31;55581;46.718;7.690;2023-02-21T09:40:02;7.94;72.86
68609;SHT31;55581;46.718;7.690;2023-02-21T09:42:30;8.10;72.03
68609;SHT31;55581;46.718;7.690;2023-02-21T09:44:58;8.08;73.99
68609;SHT31;55581;46.718;7.690;2023-02-21T09:47:29;8.15;72.83
68609;SHT31;55581;46.718;7.690;2023-02-21T09:50:06;8.37;72.27
68609;SHT31;55581;46.718;7.690;2023-02-21T09:52:35;8.34;72.53
68609;SHT31;55581;46.718;7.690;2023-02-21T09:55:06;8.21;73.73
68609;SHT31;55581;46.718;7.690;2023-02-21T09:57:33;8.39;72.43
68609;SHT31;55581;46.718;7.690;2023-02-21T09:59:59;8.37;73.12
68609;SHT31;55581;46.718;7.690;2023-02-21T10:11:16;9.07;71.31
68609;SHT31;55581;46.718;7.690;2023-02-21T10:16:54;9.15;70.09
68609;SHT31;55581;46.718;7.690;2023-02-21T10:19:25;9.26;68.61
68609;SHT31;55581;46.718;7.690;2023-02-21T10:21:56;9.35;69.19
68609;SHT31;55581;46.718;7.690;2023-02-21T10:24:26;9.48;67.08
68609;SHT31;55581;46.718;7.690;2023-02-21T10:27:05;9.54;65.96
68609;SHT31;55581;46.718;7.690;2023-02-21T10:29:51;9.53;62.76
68609;SHT31;55581;46.718;7.690;2023-02-21T10:32:20;9.57;61.86
68609;SHT31;55581;46.718;7.690;2023-02-21T10:34:46;9.44;63.81
68609;SHT31;55581;46.718;7.690;2023-02-21T10:42:48;9.65;63.65
68609;SHT31;55581;46.718;7.690;2023-02-21T10:45:17;9.77;62.82
68609;SHT31;55581;46.718;7.690;2023-02-21T10:48:05;9.87;61.90
68609;SHT31;55581;46.718;7.690;2023-02-21T10:50:50;9.91;60.36
68609;SHT31;55581;46.718;7.690;2023-02-21T10:53:29;10.08;60.75
68609;SHT31;55581;46.718;7.690;2023-02-21T10:59:02;10.19;59.69
68609;SHT31;55581;46.718;7.690;2023-02-21T11:01:48;10.42;59.97
68609;SHT31;55581;46.718;7.690;2023-02-21T11:06:55;10.56;59.40
68609;SHT31;55581;46.718;7.690;2023-02-21T11:09:41;10.66;60.98
68609;SHT31;55581;46.718;7.690;2023-02-21T11:12:25;10.63;60.33
68609;SHT31;55581;46.718;7.690;2023-02-21T11:17:20;10.91;58.45
68609;SHT31;55581;46.718;7.690;2023-02-21T11:20:15;10.91;57.06
68609;SHT31;55581;46.718;7.690;2023-02-21T11:22:46;11.08;56.67
68609;SHT31;55581;46.718;7.690;2023-02-21T11:31:04;11.44;56.01
68609;SHT31;55581;46.718;7.690;2023-02-21T11:33:31;11.57;54.67
68609;SHT31;55581;46.718;7.690;2023-02-21T11:36:16;11.63;55.79
68609;SHT31;55581;46.718;7.690;2023-02-21T11:38:44;11.88;56.41
68609;SHT31;55581;46.718;7.690;2023-02-21T11:41:46;12.01;54.77
68609;SHT31;55581;46.718;7.690;2023-02-21T11:47:03;12.11;53.58
68609;SHT31;55581;46.718;7.690;2023-02-21T11:52:35;12.28;52.22
68609;SHT31;55581;46.718;7.690;2023-02-21T11:55:01;12.29;50.83
68609;SHT31;55581;46.718;7.690;2023-02-21T12:00:22;12.28;51.36
68609;SHT31;55581;46.718;7.690;2023-02-21T12:13:39;12.91;50.28
68609;SHT31;55581;46.718;7.690;2023-02-21T12:25:00;13.59;46.17
68609;SHT31;55581;46.718;7.690;2023-02-21T12:27:57;13.66;46.83
68609;SHT31;55581;46.718;7.690;2023-02-21T12:36:26;13.98;45.30
68609;SHT31;55581;46.718;7.690;2023-02-21T12:42:09;14.22;46.86
68609;SHT31;55581;46.718;7.690;2023-02-21T12:47:15;14.29;45.42
68609;SHT31;55581;46.718;7.690;2023-02-21T12:53:05;14.48;44.88
68609;SHT31;55581;46.718;7.690;2023-02-21T12:55:36;14.61;45.26
68609;SHT31;55581;46.718;7.690;2023-02-21T12:58:20;14.62;51.14
68609;SHT31;55581;46.718;7.690;2023-02-21T13:01:06;14.59;47.08
68609;SHT31;55581;46.718;7.690;2023-02-21T13:06:40;14.41;50.77
68609;SHT31;55581;46.718;7.690;2023-02-21T13:09:36;14.42;51.38
68609;SHT31;55581;46.718;7.690;2023-02-21T13:12:12;14.29;50.50
68609;SHT31;55581;46.718;7.690;2023-02-21T13:14:51;14.22;49.16
68609;SHT31;55581;46.718;7.690;2023-02-21T13:17:20;14.39;50.03
68609;SHT31;55581;46.718;7.690;2023-02-21T13:19:52;14.43;48.94
68609;SHT31;55581;46.718;7.690;2023-02-21T13:22:48;14.49;47.81
68609;SHT31;55581;46.718;7.690;2023-02-21T13:25:27;14.65;47.83
68609;SHT31;55581;46.718;7.690;2023-02-21T13:28:07;14.75;46.96
68609;SHT31;55581;46.718;7.690;2023-02-21T13:30:44;14.61;46.13
68609;SHT31;55581;46.718;7.690;2023-02-21T13:33:39;14.70;46.25
68609;SHT31;55581;46.718;7.690;2023-02-21T13:41:52;15.20;45.62
68609;SHT31;55581;46.718;7.690;2023-02-21T13:44:27;15.23;46.20
68609;SHT31;55581;46.718;7.690;2023-02-21T13:49:53;15.35;46.28
68609;SHT31;55581;46.718;7.690;2023-02-21T13:57:48;15.62;46.11
68609;SHT31;55581;46.718;7.690;2023-02-21T14:03:28;15.48;44.52
68609;SHT31;55581;46.718;7.690;2023-02-21T14:08:57;15.28;45.50
68609;SHT31;55581;46.718;7.690;2023-02-21T14:11:28;15.27;46.73
68609;SHT31;55581;46.718;7.690;2023-02-21T14:13:59;15.30;45.95
68609;SHT31;55581;46.718;7.690;2023-02-21T14:19:24;15.38;46.71
68609;SHT31;55581;46.718;7.690;2023-02-21T14:24:50;15.27;45.53
68609;SHT31;55581;46.718;7.690;2023-02-21T14:32:46;15.41;46.21
68609;SHT31;55581;46.718;7.690;2023-02-21T14:35:35;15.46;46.00
68609;SHT31;55581;46.718;7.690;2023-02-21T14:38:24;15.38;45.73
68609;SHT31;55581;46.718;7.690;2023-02-21T14:41:34;15.42;46.28
68609;SHT31;55581;46.718;7.690;2023-02-21T14:44:48;15.39;46.55
68609;SHT31;55581;46.718;7.690;2023-02-21T14:47:39;15.48;46.54
68609;SHT31;55581;46.718;7.690;2023-02-21T15:04:33;15.35;47.13
68609;SHT31;55581;46.718;7.690;2023-02-21T15:10:32;15.28;47.09
68609;SHT31;55581;46.718;7.690;2023-02-21T15:13:05;15.18;47.62
68609;SHT31;55581;46.718;7.690;2023-02-21T15:15:38;15.18;48.31
68609;SHT31;55581;46.718;7.690;2023-02-21T15:18:08;15.11;48.58
68609;SHT31;55581;46.718;7.690;2023-02-21T15:20:39;15.07;47.94
68609;SHT31;55581;46.718;7.690;2023-02-21T15:23:19;14.86;47.76
68609;SHT31;55581;46.718;7.690;2023-02-21T15:26:18;14.73;47.87
68609;SHT31;55581;46.718;7.690;2023-02-21T15:29:01;14.69;48.90
68609;SHT31;55581;46.718;7.690;2023-02-21T15:31:27;14.53;48.32
68609;SHT31;55581;46.718;7.690;2023-02-21T15:33:53;14.49;47.99
68609;SHT31;55581;46.718;7.690;2023-02-21T15:36:22;14.61;47.37
68609;SHT31;55581;46.718;7.690;2023-02-21T15:39:11;14.46;49.23
68609;SHT31;55581;46.718;7.690;2023-02-21T15:41:44;14.53;48.22
68609;SHT31;55581;46.718;7.690;2023-02-21T15:44:28;14.73;48.06
68609;SHT31;55581;46.718;7.690;2023-02-21T15:47:07;14.80;49.18
68609;SHT31;55581;46.718;7.690;2023-02-21T15:52:40;14.53;51.29
68609;SHT31;55581;46.718;7.690;2023-02-21T15:57:45;14.42;50.05
68609;SHT31;55581;46.718;7.690;2023-02-21T16:02:44;14.48;49.42
68609;SHT31;55581;46.718;7.690;2023-02-21T16:05:29;14.41;49.74
68609;SHT31;55581;46.718;7.690;2023-02-21T16:08:03;14.31;50.99
68609;SHT31;55581;46.718;7.690;2023-02-21T16:10:31;14.24;50.77
68609;SHT31;55581;46.718;7.690;2023-02-21T16:13:01;14.24;50.67
68609;SHT31;55581;46.718;7.690;2023-02-21T16:15:30;14.17;50.55
68609;SHT31;55581;46.718;7.690;2023-02-21T16:18:00;13.97;51.12
68609;SHT31;55581;46.718;7.690;2023-02-21T16:20:33;13.76;51.87
68609;SHT31;55581;46.718;7.690;2023-02-21T16:26:40;13.32;54.78
68609;SHT31;55581;46.718;7.690;2023-02-21T16:28:54;13.16;57.30
68609;SHT31;55581;46.718;7.690;2023-02-21T16:31:29;13.04;56.76
68609;SHT31;55581;46.718;7.690;2023-02-21T16:33:55;12.93;57.32
68609;SHT31;55581;46.718;7.690;2023-02-21T16:36:28;12.83;57.51
68609;SHT31;55581;46.718;7.690;2023-02-21T16:38:55;12.73;58.11
68609;SHT31;55581;46.718;7.690;2023-02-21T16:41:21;12.56;60.51
68609;SHT31;55581;46.718;7.690;2023-02-21T16:43:47;12.43;61.97
68609;SHT31;55581;46.718;7.690;2023-02-21T16:46:24;12.32;62.99
68609;SHT31;55581;46.718;7.690;2023-02-21T16:48:56;12.24;63.95
68609;SHT31;55581;46.718;7.690;2023-02-21T16:51:25;12.15;64.61
68609;SHT31;55581;46.718;7.690;2023-02-21T16:53:57;12.06;65.59
68609;SHT31;55581;46.718;7.690;2023-02-21T16:56:23;11.95;65.53
68609;SHT31;55581;46.718;7.690;2023-02-21T16:58:50;11.83;65.76
68609;SHT31;55581;46.718;7.690;2023-02-21T17:01:27;11.74;66.01
68609;SHT31;55581;46.718;7.690;2023-02-21T17:03:53;11.60;66.42
68609;SHT31;55581;46.718;7.690;2023-02-21T17:06:23;11.47;66.36
68609;SHT31;55581;46.718;7.690;2023-02-21T17:08:51;11.38;67.32
68609;SHT31;55581;46.718;7.690;2023-02-21T17:11:17;11.25;68.12
68609;SHT31;55581;46.718;7.690;2023-02-21T17:13:43;11.16;68.41
68609;SHT31;55581;46.718;7.690;2023-02-21T17:16:09;11.08;69.50
68609;SHT31;55581;46.718;7.690;2023-02-21T17:18:34;10.97;69.10
68609;SHT31;55581;46.718;7.690;2023-02-21T17:21:00;10.90;69.02
68609;SHT31;55581;46.718;7.690;2023-02-21T17:23:26;10.81;69.72
68609;SHT31;55581;46.718;7.690;2023-02-21T17:25:52;10.75;69.57
68609;SHT31;55581;46.718;7.690;2023-02-21T17:28:20;10.74;69.59
68609;SHT31;55581;46.718;7.690;2023-02-21T17:30:45;10.67;69.74
68609;SHT31;55581;46.718;7.690;2023-02-21T17:33:12;10.63;69.82
68609;SHT31;55581;46.718;7.690;2023-02-21T17:35:39;10.55;70.01
68609;SHT31;55581;46.718;7.690;2023-02-21T17:38:06;10.49;70.60
68609;SHT31;55581;46.718;7.690;2023-02-21T17:40:32;10.40;71.04
68609;SHT31;55581;46.718;7.690;2023-02-21T17:42:57;10.32;71.76
68609;SHT31;55581;46.718;7.690;2023-02-21T17:45:24;10.22;71.44
68609;SHT31;55581;46.718;7.690;2023-02-21T17:47:53;10.16;71.55
68609;SHT31;55581;46.718;7.690;2023-02-21T17:50:19;10.09;70.66
68609;SHT31;55581;46.718;7.690;2023-02-21T17:52:45;10.01;72.09
68609;SHT31;55581;46.718;7.690;2023-02-21T17:55:18;9.92;72.30
68609;SHT31;55581;46.718;7.690;2023-02-21T17:57:43;9.88;70.78
68609;SHT31;55581;46.718;7.690;2023-02-21T18:00:15;9.88;70.01
68609;SHT31;55581;46.718;7.690;2023-02-21T18:02:41;9.82;70.83
68609;SHT31;55581;46.718;7.690;2023-02-21T18:05:07;9.75;72.28
68609;SHT31;55581;46.718;7.690;2023-02-21T18:07:34;9.75;71.83
68609;SHT31;55581;46.718;7.690;2023-02-21T18:10:01;9.69;72.17
68609;SHT31;55581;46.718;7.690;2023-02-21T18:12:29;9.63;71.97
68609;SHT31;55581;46.718;7.690;2023-02-21T18:14:54;9.57;71.31
68609;SHT31;55581;46.718;7.690;2023-02-21T18:17:20;9.57;72.15
68609;SHT31;55581;46.718;7.690;2023-02-21T18:19:45;9.51;72.97
68609;SHT31;55581;46.718;7.690;2023-02-21T18:22:11;9.42;73.06
68609;SHT31;55581;46.718;7.690;2023-02-21T18:24:37;9.39;72.68
68609;SHT31;55581;46.718;7.690;2023-02-21T18:27:04;9.29;72.59
68609;SHT31;55581;46.718;7.690;2023-02-21T18:29:31;9.25;71.57
68609;SHT31;55581;46.718;7.690;2023-02-21T18:31:57;9.20;71.31
68609;SHT31;55581;46.718;7.690;2023-02-21T18:34:23;9.20;72.18
68609;SHT31;55581;46.718;7.690;2023-02-21T18:36:50;9.15;71.84
68609;SHT31;55581;46.718;7.690;2023-02-21T18:39:16;9.08;72.85
68609;SHT31;55581;46.718;7.690;2023-02-21T18:41:45;9.04;73.09
68609;SHT31;55581;46.718;7.690;2023-02-21T18:44:11;9.08;70.45
68609;SHT31;55581;46.718;7.690;2023-02-21T18:46:36;9.16;69.23
68609;SHT31;55581;46.718;7.690;2023-02-21T18:49:04;9.29;67.20
68609;SHT31;55581;46.718;7.690;2023-02-21T18:51:34;9.29;68.22
68609;SHT31;55581;46.718;7.690;2023-02-21T18:54:00;9.27;68.81
68609;SHT31;55581;46.718;7.690;2023-02-21T18:56:25;9.19;69.50
68609;SHT31;55581;46.718;7.690;2023-02-21T18:58:53;9.11;70.11
68609;SHT31;55581;46.718;7.690;2023-02-21T19:01:21;9.02;70.35
68609;SHT31;55581;46.718;7.690;2023-02-21T19:03:49;8.92;70.64
68609;SHT31;55581;46.718;7.690;2023-02-21T19:06:16;8.87;73.19